Startpagina
METAR-TAF:

METAR-TAF

Vliegvelden :

Cartagena, Colombia

breedte: 10-27N, lengte: 075-31W, hoogte: 1 m

Actueel weer

Dit bericht is 53 minuten geleden gemaakt, om 07:00 UTC
Wind 5 kt uit het noorden
Temperatuur 27°C
Vochtigheid 89%
Druk 1011 hPa
Zicht 10 km of meer
Weinig wolken op 1500 ft
Verspreide wolken op 20000 ft

METAR: SKCG 210700Z 01005KT 9999 FEW015 SCT200 27/25 A2984

Tijdstip: 02:53 (07:53 UTC)

Verwachting

Dit bericht is 3 uur en het 23 minuten geleden gemaakt, om 04:30 UTC
Verwachting geldig van 21 om 06 UTC tot 22 om 06 UTC
Wind 4 kt uit het noordnoordoosten
Zicht 10 km of meer
Weinig wolken op 1700 ft
Tijdelijke
van 21 om 17 UTC tot 21 om 22 UTC
Wind 12 kt uit het noorden

TAF: SKCG 210430Z 2106/2206 03004KT 9999 FEW017 TEMPO 2117/2122 36012KT TX32/2119Z TN25/2111Z

Waarnemingen en weersverwachtingen van meer dan 4000 vliegvelden (METAR en TAF).

De beschikbare stations zijn de gele en rode punten op de kaart.

Ga met uw muis naar het station om de naam te zien.

Klik dan om waarnemingen en weersverwachtingen te zien.

kaart wijzigen: klik op de groene knoppen met een zwart kruis om in te zoomen, op de groene knop met een streepje om uit te zoomen of op de groene pijlen voor aangrenzende kaarten.


METAR-TAF: